sensor_id;sensor_type;location;lat;lon;timestamp;P1;durP1;ratioP1;P2;durP2;ratioP2
68854;SDS011;69984;-43.570;172.580;2024-02-15T00:00:37;0.65;;;0.00;;
68854;SDS011;69984;-43.570;172.580;2024-02-15T00:03:04;0.10;;;0.00;;
68854;SDS011;69984;-43.570;172.580;2024-02-15T00:05:39;0.10;;;0.10;;
68854;SDS011;69984;-43.570;172.580;2024-02-15T00:08:06;0.20;;;0.20;;
68854;SDS011;69984;-43.570;172.580;2024-02-15T00:10:33;0.10;;;0.00;;
68854;SDS011;69984;-43.570;172.580;2024-02-15T00:13:00;0.30;;;0.10;;
68854;SDS011;69984;-43.570;172.580;2024-02-15T00:15:27;1.95;;;0.10;;
68854;SDS011;69984;-43.570;172.580;2024-02-15T00:17:54;2.40;;;0.10;;
68854;SDS011;69984;-43.570;172.580;2024-02-15T00:20:21;3.25;;;0.10;;
68854;SDS011;69984;-43.570;172.580;2024-02-15T00:22:48;0.35;;;0.10;;
68854;SDS011;69984;-43.570;172.580;2024-02-15T00:25:15;0.10;;;0.00;;
68854;SDS011;69984;-43.570;172.580;2024-02-15T00:27:42;2.00;;;0.03;;
68854;SDS011;69984;-43.570;172.580;2024-02-15T00:30:10;0.00;;;0.00;;
68854;SDS011;69984;-43.570;172.580;2024-02-15T00:32:37;0.20;;;0.10;;
68854;SDS011;69984;-43.570;172.580;2024-02-15T00:35:04;7.47;;;0.10;;
68854;SDS011;69984;-43.570;172.580;2024-02-15T00:37:33;0.30;;;0.10;;
68854;SDS011;69984;-43.570;172.580;2024-02-15T00:40:00;9.02;;;0.00;;
68854;SDS011;69984;-43.570;172.580;2024-02-15T00:42:29;0.10;;;0.00;;
68854;SDS011;69984;-43.570;172.580;2024-02-15T00:44:59;0.15;;;0.08;;
68854;SDS011;69984;-43.570;172.580;2024-02-15T00:47:27;8.57;;;0.25;;
68854;SDS011;69984;-43.570;172.580;2024-02-15T00:49:54;1.67;;;0.20;;
68854;SDS011;69984;-43.570;172.580;2024-02-15T00:52:21;0.88;;;0.10;;
68854;SDS011;69984;-43.570;172.580;2024-02-15T00:54:49;0.25;;;0.00;;
68854;SDS011;69984;-43.570;172.580;2024-02-15T00:57:16;0.93;;;0.15;;
68854;SDS011;69984;-43.570;172.580;2024-02-15T00:59:43;0.15;;;0.08;;
68854;SDS011;69984;-43.570;172.580;2024-02-15T01:02:10;1.30;;;0.10;;
68854;SDS011;69984;-43.570;172.580;2024-02-15T01:04:38;0.52;;;0.03;;
68854;SDS011;69984;-43.570;172.580;2024-02-15T01:07:05;2.20;;;0.20;;
68854;SDS011;69984;-43.570;172.580;2024-02-15T01:09:33;2.75;;;0.10;;
68854;SDS011;69984;-43.570;172.580;2024-02-15T01:12:00;1.55;;;0.00;;
68854;SDS011;69984;-43.570;172.580;2024-02-15T01:16:56;0.13;;;0.13;;
68854;SDS011;69984;-43.570;172.580;2024-02-15T01:19:23;1.75;;;0.10;;
68854;SDS011;69984;-43.570;172.580;2024-02-15T01:21:50;0.30;;;0.00;;
68854;SDS011;69984;-43.570;172.580;2024-02-15T01:26:45;0.25;;;0.05;;
68854;SDS011;69984;-43.570;172.580;2024-02-15T01:29:13;0.60;;;0.10;;
68854;SDS011;69984;-43.570;172.580;2024-02-15T01:31:40;0.25;;;0.10;;
68854;SDS011;69984;-43.570;172.580;2024-02-15T01:34:08;0.30;;;0.00;;
68854;SDS011;69984;-43.570;172.580;2024-02-15T01:36:35;0.57;;;0.20;;
68854;SDS011;69984;-43.570;172.580;2024-02-15T01:39:02;0.80;;;0.10;;
68854;SDS011;69984;-43.570;172.580;2024-02-15T01:41:29;3.47;;;0.30;;
68854;SDS011;69984;-43.570;172.580;2024-02-15T01:43:57;1.85;;;0.03;;
68854;SDS011;69984;-43.570;172.580;2024-02-15T01:46:24;0.52;;;0.03;;
68854;SDS011;69984;-43.570;172.580;2024-02-15T01:48:51;0.20;;;0.00;;
68854;SDS011;69984;-43.570;172.580;2024-02-15T01:51:18;0.10;;;0.08;;
68854;SDS011;69984;-43.570;172.580;2024-02-15T01:53:45;2.55;;;0.17;;
68854;SDS011;69984;-43.570;172.580;2024-02-15T01:56:13;0.40;;;0.10;;
68854;SDS011;69984;-43.570;172.580;2024-02-15T01:58:41;0.30;;;0.10;;
68854;SDS011;69984;-43.570;172.580;2024-02-15T02:01:11;2.88;;;0.20;;
68854;SDS011;69984;-43.570;172.580;2024-02-15T02:03:39;0.55;;;0.10;;
68854;SDS011;69984;-43.570;172.580;2024-02-15T02:06:07;3.33;;;0.20;;
68854;SDS011;69984;-43.570;172.580;2024-02-15T02:08:35;0.15;;;0.00;;
68854;SDS011;69984;-43.570;172.580;2024-02-15T02:11:02;1.65;;;0.10;;
68854;SDS011;69984;-43.570;172.580;2024-02-15T02:13:29;0.43;;;0.10;;
68854;SDS011;69984;-43.570;172.580;2024-02-15T02:15:56;0.28;;;0.00;;
68854;SDS011;69984;-43.570;172.580;2024-02-15T02:20:51;0.10;;;0.00;;
68854;SDS011;69984;-43.570;172.580;2024-02-15T02:23:20;0.10;;;0.10;;
68854;SDS011;69984;-43.570;172.580;2024-02-15T02:25:54;3.47;;;0.25;;
68854;SDS011;69984;-43.570;172.580;2024-02-15T02:28:22;0.20;;;0.00;;
68854;SDS011;69984;-43.570;172.580;2024-02-15T02:30:49;0.38;;;0.05;;
68854;SDS011;69984;-43.570;172.580;2024-02-15T02:33:17;1.45;;;0.10;;
68854;SDS011;69984;-43.570;172.580;2024-02-15T02:35:48;0.00;;;0.00;;
68854;SDS011;69984;-43.570;172.580;2024-02-15T02:38:15;1.75;;;0.10;;
68854;SDS011;69984;-43.570;172.580;2024-02-15T02:40:42;0.60;;;0.10;;
68854;SDS011;69984;-43.570;172.580;2024-02-15T02:43:09;1.88;;;1.08;;
68854;SDS011;69984;-43.570;172.580;2024-02-15T02:45:36;0.93;;;0.20;;
68854;SDS011;69984;-43.570;172.580;2024-02-15T02:48:03;0.75;;;0.20;;
68854;SDS011;69984;-43.570;172.580;2024-02-15T02:50:30;0.10;;;0.00;;
68854;SDS011;69984;-43.570;172.580;2024-02-15T02:52:57;3.55;;;0.00;;
68854;SDS011;69984;-43.570;172.580;2024-02-15T02:55:25;0.17;;;0.08;;
68854;SDS011;69984;-43.570;172.580;2024-02-15T02:57:52;0.90;;;0.00;;
68854;SDS011;69984;-43.570;172.580;2024-02-15T03:00:20;5.32;;;0.10;;
68854;SDS011;69984;-43.570;172.580;2024-02-15T03:02:48;1.17;;;0.10;;
68854;SDS011;69984;-43.570;172.580;2024-02-15T03:05:15;0.57;;;0.10;;
68854;SDS011;69984;-43.570;172.580;2024-02-15T03:07:42;0.00;;;0.00;;
68854;SDS011;69984;-43.570;172.580;2024-02-15T03:10:09;4.40;;;0.30;;
68854;SDS011;69984;-43.570;172.580;2024-02-15T03:12:39;0.80;;;0.00;;
68854;SDS011;69984;-43.570;172.580;2024-02-15T03:15:08;2.30;;;0.00;;
68854;SDS011;69984;-43.570;172.580;2024-02-15T03:17:41;0.00;;;0.00;;
68854;SDS011;69984;-43.570;172.580;2024-02-15T03:20:10;0.00;;;0.00;;
68854;SDS011;69984;-43.570;172.580;2024-02-15T03:23:06;3.80;;;0.47;;
68854;SDS011;69984;-43.570;172.580;2024-02-15T03:25:32;1.75;;;0.10;;
68854;SDS011;69984;-43.570;172.580;2024-02-15T03:28:00;2.28;;;0.13;;
68854;SDS011;69984;-43.570;172.580;2024-02-15T03:30:31;1.40;;;0.10;;
68854;SDS011;69984;-43.570;172.580;2024-02-15T03:33:00;0.75;;;0.10;;
68854;SDS011;69984;-43.570;172.580;2024-02-15T03:35:30;0.22;;;0.00;;
68854;SDS011;69984;-43.570;172.580;2024-02-15T03:37:57;1.35;;;0.10;;
68854;SDS011;69984;-43.570;172.580;2024-02-15T03:40:24;0.35;;;0.20;;
68854;SDS011;69984;-43.570;172.580;2024-02-15T03:42:52;0.25;;;0.10;;
68854;SDS011;69984;-43.570;172.580;2024-02-15T03:45:19;0.47;;;0.20;;
68854;SDS011;69984;-43.570;172.580;2024-02-15T03:47:53;0.82;;;0.10;;
68854;SDS011;69984;-43.570;172.580;2024-02-15T03:50:23;0.47;;;0.20;;
68854;SDS011;69984;-43.570;172.580;2024-02-15T03:52:51;1.23;;;0.10;;
68854;SDS011;69984;-43.570;172.580;2024-02-15T03:55:18;1.20;;;0.32;;
68854;SDS011;69984;-43.570;172.580;2024-02-15T03:57:47;0.82;;;0.20;;
68854;SDS011;69984;-43.570;172.580;2024-02-15T04:00:14;0.50;;;0.20;;
68854;SDS011;69984;-43.570;172.580;2024-02-15T04:02:46;0.50;;;0.03;;
68854;SDS011;69984;-43.570;172.580;2024-02-15T04:05:14;0.43;;;0.00;;
68854;SDS011;69984;-43.570;172.580;2024-02-15T04:07:46;3.33;;;0.10;;
68854;SDS011;69984;-43.570;172.580;2024-02-15T04:10:13;2.60;;;0.10;;
68854;SDS011;69984;-43.570;172.580;2024-02-15T04:12:43;0.10;;;0.00;;
68854;SDS011;69984;-43.570;172.580;2024-02-15T04:15:10;1.08;;;0.10;;
68854;SDS011;69984;-43.570;172.580;2024-02-15T04:17:37;0.30;;;0.10;;
68854;SDS011;69984;-43.570;172.580;2024-02-15T04:20:04;0.03;;;0.00;;
68854;SDS011;69984;-43.570;172.580;2024-02-15T04:22:32;0.10;;;0.03;;
68854;SDS011;69984;-43.570;172.580;2024-02-15T04:25:06;0.00;;;0.00;;
68854;SDS011;69984;-43.570;172.580;2024-02-15T04:27:42;0.73;;;0.10;;
68854;SDS011;69984;-43.570;172.580;2024-02-15T04:30:12;0.70;;;0.10;;
68854;SDS011;69984;-43.570;172.580;2024-02-15T04:32:41;1.17;;;0.10;;
68854;SDS011;69984;-43.570;172.580;2024-02-15T04:35:08;0.57;;;0.10;;
68854;SDS011;69984;-43.570;172.580;2024-02-15T04:37:35;0.05;;;0.00;;
68854;SDS011;69984;-43.570;172.580;2024-02-15T04:40:03;1.33;;;0.03;;
68854;SDS011;69984;-43.570;172.580;2024-02-15T04:42:36;0.17;;;0.10;;
68854;SDS011;69984;-43.570;172.580;2024-02-15T04:45:05;1.05;;;0.05;;
68854;SDS011;69984;-43.570;172.580;2024-02-15T04:50:11;2.15;;;0.10;;
68854;SDS011;69984;-43.570;172.580;2024-02-15T04:52:38;0.65;;;0.00;;
68854;SDS011;69984;-43.570;172.580;2024-02-15T04:55:04;0.40;;;0.17;;
68854;SDS011;69984;-43.570;172.580;2024-02-15T04:57:32;0.47;;;0.00;;
68854;SDS011;69984;-43.570;172.580;2024-02-15T05:00:02;0.32;;;0.25;;
68854;SDS011;69984;-43.570;172.580;2024-02-15T05:02:35;0.73;;;0.03;;
68854;SDS011;69984;-43.570;172.580;2024-02-15T05:05:09;0.30;;;0.05;;
68854;SDS011;69984;-43.570;172.580;2024-02-15T05:07:38;1.75;;;0.10;;
68854;SDS011;69984;-43.570;172.580;2024-02-15T05:10:05;1.17;;;0.40;;
68854;SDS011;69984;-43.570;172.580;2024-02-15T05:15:00;1.15;;;0.10;;
68854;SDS011;69984;-43.570;172.580;2024-02-15T05:17:28;1.00;;;0.10;;
68854;SDS011;69984;-43.570;172.580;2024-02-15T05:19:55;0.00;;;0.00;;
68854;SDS011;69984;-43.570;172.580;2024-02-15T05:24:55;0.13;;;0.03;;
68854;SDS011;69984;-43.570;172.580;2024-02-15T05:27:22;0.15;;;0.00;;
68854;SDS011;69984;-43.570;172.580;2024-02-15T05:29:49;0.28;;;0.10;;
68854;SDS011;69984;-43.570;172.580;2024-02-15T05:32:18;0.32;;;0.10;;
68854;SDS011;69984;-43.570;172.580;2024-02-15T05:34:46;0.77;;;0.13;;
68854;SDS011;69984;-43.570;172.580;2024-02-15T05:37:16;0.80;;;0.20;;
68854;SDS011;69984;-43.570;172.580;2024-02-15T05:39:43;0.00;;;0.00;;
68854;SDS011;69984;-43.570;172.580;2024-02-15T05:42:10;2.60;;;0.15;;
68854;SDS011;69984;-43.570;172.580;2024-02-15T05:44:37;2.85;;;0.20;;
68854;SDS011;69984;-43.570;172.580;2024-02-15T05:47:04;0.10;;;0.03;;
68854;SDS011;69984;-43.570;172.580;2024-02-15T05:49:31;0.30;;;0.10;;
68854;SDS011;69984;-43.570;172.580;2024-02-15T05:51:58;1.48;;;0.20;;
68854;SDS011;69984;-43.570;172.580;2024-02-15T05:54:25;0.45;;;0.17;;
68854;SDS011;69984;-43.570;172.580;2024-02-15T05:56:52;2.83;;;0.03;;
68854;SDS011;69984;-43.570;172.580;2024-02-15T05:59:20;1.10;;;0.20;;
68854;SDS011;69984;-43.570;172.580;2024-02-15T06:01:47;3.00;;;0.20;;
68854;SDS011;69984;-43.570;172.580;2024-02-15T06:04:15;1.95;;;0.20;;
68854;SDS011;69984;-43.570;172.580;2024-02-15T06:06:42;1.85;;;0.10;;
68854;SDS011;69984;-43.570;172.580;2024-02-15T06:09:09;0.52;;;0.10;;
68854;SDS011;69984;-43.570;172.580;2024-02-15T06:11:36;2.72;;;0.20;;
68854;SDS011;69984;-43.570;172.580;2024-02-15T06:14:03;0.50;;;0.13;;
68854;SDS011;69984;-43.570;172.580;2024-02-15T06:16:32;0.50;;;0.10;;
68854;SDS011;69984;-43.570;172.580;2024-02-15T06:18:59;0.52;;;0.10;;
68854;SDS011;69984;-43.570;172.580;2024-02-15T06:21:27;0.38;;;0.10;;
68854;SDS011;69984;-43.570;172.580;2024-02-15T06:23:54;3.17;;;0.20;;
68854;SDS011;69984;-43.570;172.580;2024-02-15T06:26:21;0.17;;;0.00;;
68854;SDS011;69984;-43.570;172.580;2024-02-15T06:28:48;6.13;;;0.00;;
68854;SDS011;69984;-43.570;172.580;2024-02-15T06:31:33;0.15;;;0.00;;
68854;SDS011;69984;-43.570;172.580;2024-02-15T06:34:35;0.30;;;0.20;;
68854;SDS011;69984;-43.570;172.580;2024-02-15T06:37:38;2.13;;;0.10;;
68854;SDS011;69984;-43.570;172.580;2024-02-15T06:40:23;3.00;;;0.15;;
68854;SDS011;69984;-43.570;172.580;2024-02-15T06:42:51;0.52;;;0.10;;
68854;SDS011;69984;-43.570;172.580;2024-02-15T06:45:18;0.00;;;0.00;;
68854;SDS011;69984;-43.570;172.580;2024-02-15T06:47:45;0.63;;;0.10;;
68854;SDS011;69984;-43.570;172.580;2024-02-15T06:50:12;1.27;;;0.10;;
68854;SDS011;69984;-43.570;172.580;2024-02-15T06:52:40;0.85;;;0.20;;
68854;SDS011;69984;-43.570;172.580;2024-02-15T06:55:08;0.00;;;0.00;;
68854;SDS011;69984;-43.570;172.580;2024-02-15T06:57:40;0.52;;;0.15;;
68854;SDS011;69984;-43.570;172.580;2024-02-15T07:00:09;1.17;;;0.45;;
68854;SDS011;69984;-43.570;172.580;2024-02-15T07:02:41;0.50;;;0.30;;
68854;SDS011;69984;-43.570;172.580;2024-02-15T07:05:09;0.68;;;0.60;;
68854;SDS011;69984;-43.570;172.580;2024-02-15T07:07:36;2.88;;;2.13;;
68854;SDS011;69984;-43.570;172.580;2024-02-15T07:10:05;3.78;;;3.47;;
68854;SDS011;69984;-43.570;172.580;2024-02-15T07:12:32;3.55;;;3.25;;
68854;SDS011;69984;-43.570;172.580;2024-02-15T07:14:59;4.78;;;3.13;;
68854;SDS011;69984;-43.570;172.580;2024-02-15T07:17:29;3.58;;;3.28;;
68854;SDS011;69984;-43.570;172.580;2024-02-15T07:19:56;12.93;;;9.07;;
68854;SDS011;69984;-43.570;172.580;2024-02-15T07:22:23;20.95;;;11.45;;
68854;SDS011;69984;-43.570;172.580;2024-02-15T07:24:50;21.20;;;13.85;;
68854;SDS011;69984;-43.570;172.580;2024-02-15T07:27:17;26.75;;;15.60;;
68854;SDS011;69984;-43.570;172.580;2024-02-15T07:29:44;14.70;;;10.38;;
68854;SDS011;69984;-43.570;172.580;2024-02-15T07:32:11;7.05;;;6.05;;
68854;SDS011;69984;-43.570;172.580;2024-02-15T07:34:38;2.05;;;1.85;;
68854;SDS011;69984;-43.570;172.580;2024-02-15T07:37:06;1.40;;;0.70;;
68854;SDS011;69984;-43.570;172.580;2024-02-15T07:39:34;1.13;;;0.60;;
68854;SDS011;69984;-43.570;172.580;2024-02-15T07:42:04;0.40;;;0.40;;
68854;SDS011;69984;-43.570;172.580;2024-02-15T07:44:34;1.02;;;0.40;;
68854;SDS011;69984;-43.570;172.580;2024-02-15T07:47:02;0.20;;;0.20;;
68854;SDS011;69984;-43.570;172.580;2024-02-15T07:49:30;4.40;;;0.20;;
68854;SDS011;69984;-43.570;172.580;2024-02-15T07:54:26;2.80;;;0.10;;
68854;SDS011;69984;-43.570;172.580;2024-02-15T07:56:55;0.20;;;0.15;;
68854;SDS011;69984;-43.570;172.580;2024-02-15T07:59:23;0.50;;;0.32;;
68854;SDS011;69984;-43.570;172.580;2024-02-15T08:01:50;5.32;;;0.35;;
68854;SDS011;69984;-43.570;172.580;2024-02-15T08:04:18;0.25;;;0.10;;
68854;SDS011;69984;-43.570;172.580;2024-02-15T08:09:15;0.52;;;0.10;;
68854;SDS011;69984;-43.570;172.580;2024-02-15T08:11:46;5.43;;;0.30;;
68854;SDS011;69984;-43.570;172.580;2024-02-15T08:14:13;0.10;;;0.10;;
68854;SDS011;69984;-43.570;172.580;2024-02-15T08:16:40;0.63;;;0.10;;
68854;SDS011;69984;-43.570;172.580;2024-02-15T08:19:07;5.93;;;0.10;;
68854;SDS011;69984;-43.570;172.580;2024-02-15T08:21:34;0.52;;;0.10;;
68854;SDS011;69984;-43.570;172.580;2024-02-15T08:24:03;1.70;;;0.08;;
68854;SDS011;69984;-43.570;172.580;2024-02-15T08:26:35;7.72;;;1.45;;
68854;SDS011;69984;-43.570;172.580;2024-02-15T08:29:07;3.35;;;0.80;;
68854;SDS011;69984;-43.570;172.580;2024-02-15T08:31:40;10.50;;;1.52;;
68854;SDS011;69984;-43.570;172.580;2024-02-15T08:34:07;12.07;;;1.67;;
68854;SDS011;69984;-43.570;172.580;2024-02-15T08:36:39;12.65;;;1.80;;
68854;SDS011;69984;-43.570;172.580;2024-02-15T08:39:07;9.63;;;1.20;;
68854;SDS011;69984;-43.570;172.580;2024-02-15T08:41:37;20.40;;;1.98;;
68854;SDS011;69984;-43.570;172.580;2024-02-15T08:44:05;12.93;;;1.60;;
68854;SDS011;69984;-43.570;172.580;2024-02-15T08:46:37;15.32;;;2.17;;
68854;SDS011;69984;-43.570;172.580;2024-02-15T08:49:04;15.32;;;1.98;;
68854;SDS011;69984;-43.570;172.580;2024-02-15T08:51:31;10.23;;;1.73;;
68854;SDS011;69984;-43.570;172.580;2024-02-15T08:53:58;12.25;;;2.35;;
68854;SDS011;69984;-43.570;172.580;2024-02-15T08:56:25;14.43;;;2.75;;
68854;SDS011;69984;-43.570;172.580;2024-02-15T08:58:52;13.73;;;1.92;;
68854;SDS011;69984;-43.570;172.580;2024-02-15T09:01:19;18.10;;;2.05;;
68854;SDS011;69984;-43.570;172.580;2024-02-15T09:03:46;9.55;;;1.55;;
68854;SDS011;69984;-43.570;172.580;2024-02-15T09:06:13;10.00;;;2.13;;
68854;SDS011;69984;-43.570;172.580;2024-02-15T09:08:40;16.50;;;1.75;;
68854;SDS011;69984;-43.570;172.580;2024-02-15T09:11:07;15.38;;;2.28;;
68854;SDS011;69984;-43.570;172.580;2024-02-15T09:13:37;8.15;;;1.67;;
68854;SDS011;69984;-43.570;172.580;2024-02-15T09:16:05;16.63;;;2.08;;
68854;SDS011;69984;-43.570;172.580;2024-02-15T09:18:32;10.20;;;1.50;;
68854;SDS011;69984;-43.570;172.580;2024-02-15T09:20:59;15.77;;;2.00;;
68854;SDS011;69984;-43.570;172.580;2024-02-15T09:23:26;16.52;;;1.83;;
68854;SDS011;69984;-43.570;172.580;2024-02-15T09:25:53;18.45;;;2.78;;
68854;SDS011;69984;-43.570;172.580;2024-02-15T09:28:20;11.07;;;1.85;;
68854;SDS011;69984;-43.570;172.580;2024-02-15T09:30:50;16.92;;;2.50;;
68854;SDS011;69984;-43.570;172.580;2024-02-15T09:33:19;11.95;;;2.00;;
68854;SDS011;69984;-43.570;172.580;2024-02-15T09:35:47;11.70;;;1.77;;
68854;SDS011;69984;-43.570;172.580;2024-02-15T09:38:14;10.15;;;2.17;;
68854;SDS011;69984;-43.570;172.580;2024-02-15T09:40:48;21.50;;;2.13;;
68854;SDS011;69984;-43.570;172.580;2024-02-15T09:43:15;22.20;;;2.58;;
68854;SDS011;69984;-43.570;172.580;2024-02-15T09:45:42;20.33;;;2.63;;
68854;SDS011;69984;-43.570;172.580;2024-02-15T09:48:10;12.63;;;2.05;;
68854;SDS011;69984;-43.570;172.580;2024-02-15T09:50:40;16.95;;;2.22;;
68854;SDS011;69984;-43.570;172.580;2024-02-15T09:53:12;14.77;;;1.92;;
68854;SDS011;69984;-43.570;172.580;2024-02-15T09:55:40;12.60;;;2.00;;
68854;SDS011;69984;-43.570;172.580;2024-02-15T09:58:08;18.67;;;2.60;;
68854;SDS011;69984;-43.570;172.580;2024-02-15T10:03:07;32.85;;;3.20;;
68854;SDS011;69984;-43.570;172.580;2024-02-15T10:05:37;15.77;;;1.98;;
68854;SDS011;69984;-43.570;172.580;2024-02-15T10:08:06;10.50;;;1.75;;
68854;SDS011;69984;-43.570;172.580;2024-02-15T10:10:33;16.13;;;2.72;;
68854;SDS011;69984;-43.570;172.580;2024-02-15T10:13:01;17.00;;;2.70;;
68854;SDS011;69984;-43.570;172.580;2024-02-15T10:18:05;18.17;;;2.47;;
68854;SDS011;69984;-43.570;172.580;2024-02-15T10:20:39;16.88;;;2.17;;
68854;SDS011;69984;-43.570;172.580;2024-02-15T10:23:10;10.70;;;2.08;;
68854;SDS011;69984;-43.570;172.580;2024-02-15T10:25:38;12.63;;;2.17;;
68854;SDS011;69984;-43.570;172.580;2024-02-15T10:28:09;21.67;;;2.33;;
68854;SDS011;69984;-43.570;172.580;2024-02-15T10:30:41;20.85;;;1.70;;
68854;SDS011;69984;-43.570;172.580;2024-02-15T10:33:17;13.05;;;2.75;;
68854;SDS011;69984;-43.570;172.580;2024-02-15T10:35:49;15.23;;;2.17;;
68854;SDS011;69984;-43.570;172.580;2024-02-15T10:38:16;12.73;;;2.10;;
68854;SDS011;69984;-43.570;172.580;2024-02-15T10:40:43;16.85;;;2.30;;
68854;SDS011;69984;-43.570;172.580;2024-02-15T10:43:11;15.18;;;1.98;;
68854;SDS011;69984;-43.570;172.580;2024-02-15T10:45:39;16.55;;;1.95;;
68854;SDS011;69984;-43.570;172.580;2024-02-15T10:48:10;24.80;;;2.13;;
68854;SDS011;69984;-43.570;172.580;2024-02-15T10:50:41;14.30;;;1.75;;
68854;SDS011;69984;-43.570;172.580;2024-02-15T10:53:32;10.27;;;1.30;;
68854;SDS011;69984;-43.570;172.580;2024-02-15T10:58:32;10.50;;;1.30;;
68854;SDS011;69984;-43.570;172.580;2024-02-15T11:01:06;15.65;;;1.80;;
68854;SDS011;69984;-43.570;172.580;2024-02-15T11:03:35;11.10;;;1.88;;
68854;SDS011;69984;-43.570;172.580;2024-02-15T11:06:09;16.52;;;1.75;;
68854;SDS011;69984;-43.570;172.580;2024-02-15T11:08:37;14.27;;;1.65;;
68854;SDS011;69984;-43.570;172.580;2024-02-15T11:11:05;12.55;;;2.10;;
68854;SDS011;69984;-43.570;172.580;2024-02-15T11:13:32;10.52;;;2.95;;
68854;SDS011;69984;-43.570;172.580;2024-02-15T11:15:59;13.73;;;1.33;;
68854;SDS011;69984;-43.570;172.580;2024-02-15T11:24:27;17.17;;;2.08;;
68854;SDS011;69984;-43.570;172.580;2024-02-15T11:26:58;15.90;;;1.98;;
68854;SDS011;69984;-43.570;172.580;2024-02-15T11:35:09;11.45;;;1.98;;
68854;SDS011;69984;-43.570;172.580;2024-02-15T11:40:28;13.23;;;1.67;;
68854;SDS011;69984;-43.570;172.580;2024-02-15T11:46:24;10.80;;;1.50;;
68854;SDS011;69984;-43.570;172.580;2024-02-15T11:48:56;9.43;;;1.75;;
68854;SDS011;69984;-43.570;172.580;2024-02-15T11:51:28;16.02;;;1.58;;
68854;SDS011;69984;-43.570;172.580;2024-02-15T11:54:01;15.57;;;1.45;;
68854;SDS011;69984;-43.570;172.580;2024-02-15T11:56:54;11.48;;;1.65;;
68854;SDS011;69984;-43.570;172.580;2024-02-15T11:59:38;9.10;;;1.20;;
68854;SDS011;69984;-43.570;172.580;2024-02-15T12:02:21;6.95;;;1.15;;
68854;SDS011;69984;-43.570;172.580;2024-02-15T12:05:06;9.15;;;1.27;;
68854;SDS011;69984;-43.570;172.580;2024-02-15T12:07:52;8.63;;;1.25;;
68854;SDS011;69984;-43.570;172.580;2024-02-15T12:10:37;7.97;;;1.15;;
68854;SDS011;69984;-43.570;172.580;2024-02-15T12:13:22;10.55;;;1.52;;
68854;SDS011;69984;-43.570;172.580;2024-02-15T12:16:07;9.65;;;1.40;;
68854;SDS011;69984;-43.570;172.580;2024-02-15T12:18:52;7.80;;;1.00;;
68854;SDS011;69984;-43.570;172.580;2024-02-15T12:21:21;10.98;;;1.80;;
68854;SDS011;69984;-43.570;172.580;2024-02-15T12:23:50;6.32;;;1.02;;
68854;SDS011;69984;-43.570;172.580;2024-02-15T12:26:21;12.38;;;1.52;;
68854;SDS011;69984;-43.570;172.580;2024-02-15T12:28:53;5.25;;;0.73;;
68854;SDS011;69984;-43.570;172.580;2024-02-15T12:31:22;11.73;;;1.33;;
68854;SDS011;69984;-43.570;172.580;2024-02-15T12:34:01;7.70;;;1.25;;
68854;SDS011;69984;-43.570;172.580;2024-02-15T12:36:35;8.63;;;1.27;;
68854;SDS011;69984;-43.570;172.580;2024-02-15T12:39:04;7.18;;;1.13;;
68854;SDS011;69984;-43.570;172.580;2024-02-15T12:41:47;3.92;;;0.90;;
68854;SDS011;69984;-43.570;172.580;2024-02-15T12:44:18;6.78;;;1.08;;
68854;SDS011;69984;-43.570;172.580;2024-02-15T12:46:54;5.47;;;1.45;;
68854;SDS011;69984;-43.570;172.580;2024-02-15T12:51:50;10.73;;;1.42;;
68854;SDS011;69984;-43.570;172.580;2024-02-15T12:54:22;3.88;;;1.17;;
68854;SDS011;69984;-43.570;172.580;2024-02-15T12:56:49;7.63;;;1.25;;
68854;SDS011;69984;-43.570;172.580;2024-02-15T12:59:19;5.68;;;0.82;;
68854;SDS011;69984;-43.570;172.580;2024-02-15T13:01:46;11.90;;;1.83;;
68854;SDS011;69984;-43.570;172.580;2024-02-15T13:04:25;8.27;;;0.82;;
68854;SDS011;69984;-43.570;172.580;2024-02-15T13:06:54;6.85;;;0.98;;
68854;SDS011;69984;-43.570;172.580;2024-02-15T13:09:21;8.43;;;0.98;;
68854;SDS011;69984;-43.570;172.580;2024-02-15T13:11:48;3.72;;;0.52;;
68854;SDS011;69984;-43.570;172.580;2024-02-15T13:14:15;4.53;;;1.20;;
68854;SDS011;69984;-43.570;172.580;2024-02-15T13:16:42;8.23;;;1.15;;
68854;SDS011;69984;-43.570;172.580;2024-02-15T13:19:12;6.40;;;1.25;;
68854;SDS011;69984;-43.570;172.580;2024-02-15T13:21:39;3.90;;;1.00;;
68854;SDS011;69984;-43.570;172.580;2024-02-15T13:24:06;12.07;;;1.25;;
68854;SDS011;69984;-43.570;172.580;2024-02-15T13:26:33;6.00;;;1.10;;
68854;SDS011;69984;-43.570;172.580;2024-02-15T13:29:00;8.65;;;0.80;;
68854;SDS011;69984;-43.570;172.580;2024-02-15T13:31:26;12.30;;;1.58;;
68854;SDS011;69984;-43.570;172.580;2024-02-15T13:33:53;8.80;;;0.90;;
68854;SDS011;69984;-43.570;172.580;2024-02-15T13:36:20;5.78;;;0.60;;
68854;SDS011;69984;-43.570;172.580;2024-02-15T13:38:49;3.95;;;0.90;;
68854;SDS011;69984;-43.570;172.580;2024-02-15T13:41:17;3.97;;;0.70;;
68854;SDS011;69984;-43.570;172.580;2024-02-15T13:43:44;10.50;;;1.50;;
68854;SDS011;69984;-43.570;172.580;2024-02-15T13:46:11;8.50;;;0.98;;
68854;SDS011;69984;-43.570;172.580;2024-02-15T13:48:38;14.95;;;1.50;;
68854;SDS011;69984;-43.570;172.580;2024-02-15T13:51:05;6.63;;;1.20;;
68854;SDS011;69984;-43.570;172.580;2024-02-15T13:53:34;11.73;;;1.95;;
68854;SDS011;69984;-43.570;172.580;2024-02-15T13:56:02;6.78;;;0.95;;
68854;SDS011;69984;-43.570;172.580;2024-02-15T13:58:30;3.97;;;1.17;;
68854;SDS011;69984;-43.570;172.580;2024-02-15T14:00:58;15.57;;;1.17;;
68854;SDS011;69984;-43.570;172.580;2024-02-15T14:03:29;10.85;;;1.30;;
68854;SDS011;69984;-43.570;172.580;2024-02-15T14:05:56;6.10;;;1.02;;
68854;SDS011;69984;-43.570;172.580;2024-02-15T14:08:23;11.20;;;1.17;;
68854;SDS011;69984;-43.570;172.580;2024-02-15T14:10:51;2.95;;;0.80;;
68854;SDS011;69984;-43.570;172.580;2024-02-15T14:13:18;7.18;;;0.98;;
68854;SDS011;69984;-43.570;172.580;2024-02-15T14:15:48;4.90;;;0.85;;
68854;SDS011;69984;-43.570;172.580;2024-02-15T14:18:15;8.70;;;1.27;;
68854;SDS011;69984;-43.570;172.580;2024-02-15T14:20:45;2.13;;;0.50;;
68854;SDS011;69984;-43.570;172.580;2024-02-15T14:23:16;7.88;;;0.73;;
68854;SDS011;69984;-43.570;172.580;2024-02-15T14:25:43;3.08;;;0.63;;
68854;SDS011;69984;-43.570;172.580;2024-02-15T14:28:10;8.27;;;1.08;;
68854;SDS011;69984;-43.570;172.580;2024-02-15T14:30:39;4.60;;;0.75;;
68854;SDS011;69984;-43.570;172.580;2024-02-15T14:33:24;5.57;;;0.93;;
68854;SDS011;69984;-43.570;172.580;2024-02-15T14:35:51;9.68;;;0.82;;
68854;SDS011;69984;-43.570;172.580;2024-02-15T14:38:21;8.77;;;0.63;;
68854;SDS011;69984;-43.570;172.580;2024-02-15T14:40:49;6.47;;;0.70;;
68854;SDS011;69984;-43.570;172.580;2024-02-15T14:43:22;4.95;;;0.80;;
68854;SDS011;69984;-43.570;172.580;2024-02-15T14:45:51;11.05;;;0.80;;
68854;SDS011;69984;-43.570;172.580;2024-02-15T14:48:18;9.93;;;1.10;;
68854;SDS011;69984;-43.570;172.580;2024-02-15T14:50:46;9.68;;;0.85;;
68854;SDS011;69984;-43.570;172.580;2024-02-15T14:53:16;5.03;;;0.82;;
68854;SDS011;69984;-43.570;172.580;2024-02-15T14:55:43;4.65;;;0.80;;
68854;SDS011;69984;-43.570;172.580;2024-02-15T14:58:14;8.65;;;1.20;;
68854;SDS011;69984;-43.570;172.580;2024-02-15T15:00:45;6.85;;;0.93;;
68854;SDS011;69984;-43.570;172.580;2024-02-15T15:03:12;9.60;;;1.05;;
68854;SDS011;69984;-43.570;172.580;2024-02-15T15:05:40;5.78;;;1.17;;